sensor_id;sensor_type;location;lat;lon;timestamp;P1;durP1;ratioP1;P2;durP2;ratioP2
5163;SDS011;2601;50.224;10.126;2022-10-15T00:02:10;9.70;;;7.13;;
5163;SDS011;2601;50.224;10.126;2022-10-15T00:04:36;12.17;;;7.23;;
5163;SDS011;2601;50.224;10.126;2022-10-15T00:07:01;10.50;;;8.03;;
5163;SDS011;2601;50.224;10.126;2022-10-15T00:09:27;8.83;;;7.57;;
5163;SDS011;2601;50.224;10.126;2022-10-15T00:11:53;9.53;;;7.63;;
5163;SDS011;2601;50.224;10.126;2022-10-15T00:14:18;11.73;;;8.73;;
5163;SDS011;2601;50.224;10.126;2022-10-15T00:16:44;9.53;;;8.03;;
5163;SDS011;2601;50.224;10.126;2022-10-15T00:19:10;8.10;;;7.30;;
5163;SDS011;2601;50.224;10.126;2022-10-15T00:21:36;10.03;;;9.13;;
5163;SDS011;2601;50.224;10.126;2022-10-15T00:24:02;10.40;;;8.23;;
5163;SDS011;2601;50.224;10.126;2022-10-15T00:26:28;13.60;;;8.80;;
5163;SDS011;2601;50.224;10.126;2022-10-15T00:28:56;13.67;;;9.90;;
5163;SDS011;2601;50.224;10.126;2022-10-15T00:31:24;10.47;;;8.17;;
5163;SDS011;2601;50.224;10.126;2022-10-15T00:33:51;10.03;;;8.10;;
5163;SDS011;2601;50.224;10.126;2022-10-15T00:36:36;7.83;;;7.03;;
5163;SDS011;2601;50.224;10.126;2022-10-15T00:39:03;9.80;;;8.10;;
5163;SDS011;2601;50.224;10.126;2022-10-15T00:41:31;10.47;;;8.47;;
5163;SDS011;2601;50.224;10.126;2022-10-15T00:44:45;13.23;;;8.63;;
5163;SDS011;2601;50.224;10.126;2022-10-15T00:49:23;10.03;;;8.93;;
5163;SDS011;2601;50.224;10.126;2022-10-15T00:52:01;19.00;;;10.23;;
5163;SDS011;2601;50.224;10.126;2022-10-15T00:54:33;11.23;;;10.03;;
5163;SDS011;2601;50.224;10.126;2022-10-15T00:57:09;14.43;;;10.00;;
5163;SDS011;2601;50.224;10.126;2022-10-15T00:59:37;14.37;;;9.90;;
5163;SDS011;2601;50.224;10.126;2022-10-15T01:02:07;11.33;;;9.30;;
5163;SDS011;2601;50.224;10.126;2022-10-15T01:04:33;14.80;;;9.37;;
5163;SDS011;2601;50.224;10.126;2022-10-15T01:07:00;11.20;;;8.70;;
5163;SDS011;2601;50.224;10.126;2022-10-15T01:09:26;10.83;;;9.47;;
5163;SDS011;2601;50.224;10.126;2022-10-15T01:11:53;14.60;;;9.93;;
5163;SDS011;2601;50.224;10.126;2022-10-15T01:20:08;10.00;;;8.97;;
5163;SDS011;2601;50.224;10.126;2022-10-15T01:22:45;11.57;;;9.00;;
5163;SDS011;2601;50.224;10.126;2022-10-15T01:25:51;8.97;;;8.00;;
5163;SDS011;2601;50.224;10.126;2022-10-15T01:33:54;9.90;;;8.17;;
5163;SDS011;2601;50.224;10.126;2022-10-15T01:36:31;8.67;;;7.73;;
5163;SDS011;2601;50.224;10.126;2022-10-15T01:39:15;11.13;;;8.63;;
5163;SDS011;2601;50.224;10.126;2022-10-15T01:42:12;11.07;;;8.27;;
5163;SDS011;2601;50.224;10.126;2022-10-15T01:44:48;8.97;;;8.07;;
5163;SDS011;2601;50.224;10.126;2022-10-15T01:47:22;12.93;;;8.30;;
5163;SDS011;2601;50.224;10.126;2022-10-15T01:49:56;9.60;;;8.60;;
5163;SDS011;2601;50.224;10.126;2022-10-15T01:52:24;10.97;;;8.60;;
5163;SDS011;2601;50.224;10.126;2022-10-15T01:54:55;18.40;;;9.43;;
5163;SDS011;2601;50.224;10.126;2022-10-15T01:57:21;13.20;;;9.40;;
5163;SDS011;2601;50.224;10.126;2022-10-15T01:59:50;10.93;;;8.50;;
5163;SDS011;2601;50.224;10.126;2022-10-15T02:02:16;12.07;;;7.40;;
5163;SDS011;2601;50.224;10.126;2022-10-15T02:04:42;13.90;;;8.10;;
5163;SDS011;2601;50.224;10.126;2022-10-15T02:23:11;9.87;;;8.70;;
5163;SDS011;2601;50.224;10.126;2022-10-15T02:25:41;15.87;;;9.30;;
5163;SDS011;2601;50.224;10.126;2022-10-15T02:28:08;10.57;;;9.47;;
5163;SDS011;2601;50.224;10.126;2022-10-15T02:30:36;10.43;;;9.43;;
5163;SDS011;2601;50.224;10.126;2022-10-15T02:33:05;11.83;;;10.07;;
5163;SDS011;2601;50.224;10.126;2022-10-15T02:35:31;10.97;;;9.50;;
5163;SDS011;2601;50.224;10.126;2022-10-15T02:37:58;12.20;;;9.83;;
5163;SDS011;2601;50.224;10.126;2022-10-15T02:40:28;13.57;;;11.20;;
5163;SDS011;2601;50.224;10.126;2022-10-15T02:42:58;14.77;;;11.00;;
5163;SDS011;2601;50.224;10.126;2022-10-15T02:45:24;12.97;;;11.57;;
5163;SDS011;2601;50.224;10.126;2022-10-15T02:47:50;13.87;;;11.97;;
5163;SDS011;2601;50.224;10.126;2022-10-15T02:50:16;20.90;;;11.90;;
5163;SDS011;2601;50.224;10.126;2022-10-15T02:52:41;13.50;;;10.60;;
5163;SDS011;2601;50.224;10.126;2022-10-15T02:55:07;13.03;;;11.40;;
5163;SDS011;2601;50.224;10.126;2022-10-15T02:57:33;14.97;;;12.03;;
5163;SDS011;2601;50.224;10.126;2022-10-15T02:59:59;14.43;;;11.27;;
5163;SDS011;2601;50.224;10.126;2022-10-15T03:02:25;17.30;;;11.77;;
5163;SDS011;2601;50.224;10.126;2022-10-15T03:04:50;16.20;;;12.23;;
5163;SDS011;2601;50.224;10.126;2022-10-15T03:07:16;15.30;;;12.10;;
5163;SDS011;2601;50.224;10.126;2022-10-15T03:09:41;19.47;;;10.20;;
5163;SDS011;2601;50.224;10.126;2022-10-15T03:12:07;13.67;;;11.30;;
5163;SDS011;2601;50.224;10.126;2022-10-15T03:14:33;11.73;;;10.50;;
5163;SDS011;2601;50.224;10.126;2022-10-15T03:16:58;10.70;;;9.60;;
5163;SDS011;2601;50.224;10.126;2022-10-15T03:19:24;11.53;;;8.33;;
5163;SDS011;2601;50.224;10.126;2022-10-15T03:21:50;8.90;;;8.00;;
5163;SDS011;2601;50.224;10.126;2022-10-15T03:24:15;8.80;;;7.60;;
5163;SDS011;2601;50.224;10.126;2022-10-15T03:26:41;8.83;;;7.10;;
5163;SDS011;2601;50.224;10.126;2022-10-15T03:29:07;11.07;;;8.20;;
5163;SDS011;2601;50.224;10.126;2022-10-15T03:31:32;10.67;;;7.13;;
5163;SDS011;2601;50.224;10.126;2022-10-15T03:33:58;7.27;;;5.37;;
5163;SDS011;2601;50.224;10.126;2022-10-15T03:36:24;7.27;;;6.37;;
5163;SDS011;2601;50.224;10.126;2022-10-15T03:38:50;8.83;;;6.50;;
5163;SDS011;2601;50.224;10.126;2022-10-15T03:41:15;6.53;;;5.93;;
5163;SDS011;2601;50.224;10.126;2022-10-15T03:43:41;8.50;;;7.07;;
5163;SDS011;2601;50.224;10.126;2022-10-15T03:46:07;9.40;;;7.53;;
5163;SDS011;2601;50.224;10.126;2022-10-15T03:48:32;7.70;;;6.43;;
5163;SDS011;2601;50.224;10.126;2022-10-15T03:50:58;8.77;;;6.40;;
5163;SDS011;2601;50.224;10.126;2022-10-15T03:53:24;7.73;;;6.87;;
5163;SDS011;2601;50.224;10.126;2022-10-15T03:55:49;7.40;;;6.67;;
5163;SDS011;2601;50.224;10.126;2022-10-15T03:58:15;7.97;;;6.60;;
5163;SDS011;2601;50.224;10.126;2022-10-15T04:00:41;10.83;;;6.60;;
5163;SDS011;2601;50.224;10.126;2022-10-15T04:03:08;7.33;;;6.63;;
5163;SDS011;2601;50.224;10.126;2022-10-15T04:05:34;13.30;;;6.10;;
5163;SDS011;2601;50.224;10.126;2022-10-15T04:08:01;10.90;;;7.13;;
5163;SDS011;2601;50.224;10.126;2022-10-15T04:10:27;10.67;;;5.63;;
5163;SDS011;2601;50.224;10.126;2022-10-15T04:12:54;6.00;;;5.30;;
5163;SDS011;2601;50.224;10.126;2022-10-15T04:15:20;7.73;;;5.40;;
5163;SDS011;2601;50.224;10.126;2022-10-15T04:17:46;6.90;;;5.63;;
5163;SDS011;2601;50.224;10.126;2022-10-15T04:20:11;9.93;;;5.43;;
5163;SDS011;2601;50.224;10.126;2022-10-15T04:22:37;6.60;;;5.63;;
5163;SDS011;2601;50.224;10.126;2022-10-15T04:25:03;7.50;;;6.30;;
5163;SDS011;2601;50.224;10.126;2022-10-15T04:27:29;6.73;;;6.07;;
5163;SDS011;2601;50.224;10.126;2022-10-15T04:29:55;10.63;;;6.03;;
5163;SDS011;2601;50.224;10.126;2022-10-15T04:32:21;7.90;;;7.10;;
5163;SDS011;2601;50.224;10.126;2022-10-15T04:34:46;8.30;;;6.10;;
5163;SDS011;2601;50.224;10.126;2022-10-15T04:37:12;7.77;;;6.13;;
5163;SDS011;2601;50.224;10.126;2022-10-15T04:39:38;8.03;;;6.90;;
5163;SDS011;2601;50.224;10.126;2022-10-15T04:42:04;8.90;;;6.60;;
5163;SDS011;2601;50.224;10.126;2022-10-15T04:44:29;8.00;;;7.10;;
5163;SDS011;2601;50.224;10.126;2022-10-15T04:46:55;9.47;;;6.03;;
5163;SDS011;2601;50.224;10.126;2022-10-15T04:49:21;8.63;;;7.77;;
5163;SDS011;2601;50.224;10.126;2022-10-15T04:51:47;9.87;;;7.10;;
5163;SDS011;2601;50.224;10.126;2022-10-15T04:54:12;8.87;;;7.13;;
5163;SDS011;2601;50.224;10.126;2022-10-15T04:56:38;8.73;;;7.83;;
5163;SDS011;2601;50.224;10.126;2022-10-15T04:59:07;16.17;;;8.27;;
5163;SDS011;2601;50.224;10.126;2022-10-15T05:01:33;11.83;;;7.93;;
5163;SDS011;2601;50.224;10.126;2022-10-15T05:03:59;13.53;;;8.30;;
5163;SDS011;2601;50.224;10.126;2022-10-15T05:06:25;9.47;;;7.73;;
5163;SDS011;2601;50.224;10.126;2022-10-15T05:08:50;12.73;;;8.37;;
5163;SDS011;2601;50.224;10.126;2022-10-15T05:11:18;20.13;;;9.70;;
5163;SDS011;2601;50.224;10.126;2022-10-15T05:13:45;12.70;;;9.77;;
5163;SDS011;2601;50.224;10.126;2022-10-15T05:18:39;12.70;;;8.60;;
5163;SDS011;2601;50.224;10.126;2022-10-15T05:21:06;10.60;;;9.23;;
5163;SDS011;2601;50.224;10.126;2022-10-15T05:23:32;25.23;;;10.53;;
5163;SDS011;2601;50.224;10.126;2022-10-15T05:25:59;13.13;;;9.37;;
5163;SDS011;2601;50.224;10.126;2022-10-15T05:28:25;18.00;;;10.33;;
5163;SDS011;2601;50.224;10.126;2022-10-15T05:30:51;11.93;;;9.80;;
5163;SDS011;2601;50.224;10.126;2022-10-15T05:33:19;23.43;;;11.23;;
5163;SDS011;2601;50.224;10.126;2022-10-15T05:35:45;18.07;;;10.80;;
5163;SDS011;2601;50.224;10.126;2022-10-15T05:38:10;14.90;;;11.23;;
5163;SDS011;2601;50.224;10.126;2022-10-15T05:40:36;11.33;;;9.77;;
5163;SDS011;2601;50.224;10.126;2022-10-15T05:43:02;12.50;;;10.50;;
5163;SDS011;2601;50.224;10.126;2022-10-15T05:45:28;16.67;;;10.23;;
5163;SDS011;2601;50.224;10.126;2022-10-15T05:47:54;17.87;;;10.40;;
5163;SDS011;2601;50.224;10.126;2022-10-15T05:50:20;15.53;;;10.53;;
5163;SDS011;2601;50.224;10.126;2022-10-15T05:52:47;13.67;;;10.30;;
5163;SDS011;2601;50.224;10.126;2022-10-15T05:55:13;10.27;;;9.17;;
5163;SDS011;2601;50.224;10.126;2022-10-15T05:57:39;16.03;;;10.77;;
5163;SDS011;2601;50.224;10.126;2022-10-15T06:00:05;15.30;;;10.57;;
5163;SDS011;2601;50.224;10.126;2022-10-15T06:02:32;16.87;;;10.90;;
5163;SDS011;2601;50.224;10.126;2022-10-15T06:04:58;15.20;;;11.40;;
5163;SDS011;2601;50.224;10.126;2022-10-15T06:07:24;14.87;;;10.57;;
5163;SDS011;2601;50.224;10.126;2022-10-15T06:09:50;16.27;;;11.50;;
5163;SDS011;2601;50.224;10.126;2022-10-15T06:12:16;17.67;;;12.10;;
5163;SDS011;2601;50.224;10.126;2022-10-15T06:14:42;14.93;;;9.60;;
5163;SDS011;2601;50.224;10.126;2022-10-15T06:17:08;13.07;;;9.50;;
5163;SDS011;2601;50.224;10.126;2022-10-15T06:19:33;16.60;;;11.60;;
5163;SDS011;2601;50.224;10.126;2022-10-15T06:21:59;13.30;;;8.80;;
5163;SDS011;2601;50.224;10.126;2022-10-15T06:24:25;10.40;;;8.43;;
5163;SDS011;2601;50.224;10.126;2022-10-15T06:26:50;9.53;;;7.80;;
5163;SDS011;2601;50.224;10.126;2022-10-15T06:29:16;12.20;;;8.73;;
5163;SDS011;2601;50.224;10.126;2022-10-15T06:31:42;9.57;;;8.33;;
5163;SDS011;2601;50.224;10.126;2022-10-15T06:34:07;12.37;;;8.90;;
5163;SDS011;2601;50.224;10.126;2022-10-15T06:36:33;8.13;;;6.87;;
5163;SDS011;2601;50.224;10.126;2022-10-15T06:38:59;9.33;;;7.53;;
5163;SDS011;2601;50.224;10.126;2022-10-15T06:41:24;8.10;;;7.27;;
5163;SDS011;2601;50.224;10.126;2022-10-15T06:43:50;8.97;;;7.13;;
5163;SDS011;2601;50.224;10.126;2022-10-15T06:46:16;11.73;;;8.90;;
5163;SDS011;2601;50.224;10.126;2022-10-15T06:48:41;11.47;;;9.00;;
5163;SDS011;2601;50.224;10.126;2022-10-15T06:51:07;12.23;;;8.70;;
5163;SDS011;2601;50.224;10.126;2022-10-15T06:53:33;8.50;;;7.47;;
5163;SDS011;2601;50.224;10.126;2022-10-15T06:55:59;7.37;;;6.57;;
5163;SDS011;2601;50.224;10.126;2022-10-15T06:58:26;9.20;;;6.93;;
5163;SDS011;2601;50.224;10.126;2022-10-15T07:00:52;9.30;;;6.50;;
5163;SDS011;2601;50.224;10.126;2022-10-15T07:03:24;9.13;;;7.60;;
5163;SDS011;2601;50.224;10.126;2022-10-15T07:05:50;8.33;;;7.50;;
5163;SDS011;2601;50.224;10.126;2022-10-15T07:08:16;13.43;;;7.83;;
5163;SDS011;2601;50.224;10.126;2022-10-15T07:10:41;10.00;;;7.43;;
5163;SDS011;2601;50.224;10.126;2022-10-15T07:13:07;9.27;;;6.40;;
5163;SDS011;2601;50.224;10.126;2022-10-15T07:15:33;7.57;;;6.80;;
5163;SDS011;2601;50.224;10.126;2022-10-15T07:17:58;7.93;;;7.03;;
5163;SDS011;2601;50.224;10.126;2022-10-15T07:20:28;9.40;;;6.00;;
5163;SDS011;2601;50.224;10.126;2022-10-15T07:22:55;7.20;;;5.77;;
5163;SDS011;2601;50.224;10.126;2022-10-15T07:25:25;7.23;;;6.40;;
5163;SDS011;2601;50.224;10.126;2022-10-15T07:27:52;7.30;;;6.60;;
5163;SDS011;2601;50.224;10.126;2022-10-15T07:30:19;6.00;;;5.40;;
5163;SDS011;2601;50.224;10.126;2022-10-15T07:32:45;7.60;;;5.03;;
5163;SDS011;2601;50.224;10.126;2022-10-15T07:35:11;6.17;;;5.57;;
5163;SDS011;2601;50.224;10.126;2022-10-15T07:37:37;6.13;;;5.53;;
5163;SDS011;2601;50.224;10.126;2022-10-15T07:40:03;6.73;;;6.03;;
5163;SDS011;2601;50.224;10.126;2022-10-15T07:42:29;6.53;;;5.73;;
5163;SDS011;2601;50.224;10.126;2022-10-15T07:44:54;7.27;;;5.13;;
5163;SDS011;2601;50.224;10.126;2022-10-15T07:47:20;5.20;;;4.70;;
5163;SDS011;2601;50.224;10.126;2022-10-15T07:49:46;4.63;;;4.27;;
5163;SDS011;2601;50.224;10.126;2022-10-15T07:52:11;6.50;;;4.60;;
5163;SDS011;2601;50.224;10.126;2022-10-15T07:54:37;6.50;;;5.30;;
5163;SDS011;2601;50.224;10.126;2022-10-15T07:57:03;5.97;;;5.47;;
5163;SDS011;2601;50.224;10.126;2022-10-15T07:59:31;3.90;;;3.70;;
5163;SDS011;2601;50.224;10.126;2022-10-15T08:01:57;5.20;;;3.60;;
5163;SDS011;2601;50.224;10.126;2022-10-15T08:04:23;8.73;;;4.40;;
5163;SDS011;2601;50.224;10.126;2022-10-15T08:06:48;4.07;;;3.70;;
5163;SDS011;2601;50.224;10.126;2022-10-15T08:09:14;3.53;;;3.23;;
5163;SDS011;2601;50.224;10.126;2022-10-15T08:11:40;3.57;;;3.27;;
5163;SDS011;2601;50.224;10.126;2022-10-15T08:14:06;3.73;;;3.43;;
5163;SDS011;2601;50.224;10.126;2022-10-15T08:16:32;3.53;;;3.33;;
5163;SDS011;2601;50.224;10.126;2022-10-15T08:18:58;3.73;;;3.43;;
5163;SDS011;2601;50.224;10.126;2022-10-15T08:21:24;4.03;;;3.50;;
5163;SDS011;2601;50.224;10.126;2022-10-15T08:23:50;4.23;;;3.90;;
5163;SDS011;2601;50.224;10.126;2022-10-15T08:26:16;3.83;;;3.53;;
5163;SDS011;2601;50.224;10.126;2022-10-15T08:28:43;3.63;;;3.33;;
5163;SDS011;2601;50.224;10.126;2022-10-15T08:31:08;8.87;;;4.23;;
5163;SDS011;2601;50.224;10.126;2022-10-15T08:33:35;4.37;;;4.07;;
5163;SDS011;2601;50.224;10.126;2022-10-15T08:36:03;4.53;;;4.13;;
5163;SDS011;2601;50.224;10.126;2022-10-15T08:38:30;4.53;;;4.23;;
5163;SDS011;2601;50.224;10.126;2022-10-15T08:40:57;4.60;;;4.20;;
5163;SDS011;2601;50.224;10.126;2022-10-15T08:43:28;5.00;;;4.60;;
5163;SDS011;2601;50.224;10.126;2022-10-15T08:46:00;4.47;;;4.17;;
5163;SDS011;2601;50.224;10.126;2022-10-15T08:49:02;3.70;;;3.40;;
5163;SDS011;2601;50.224;10.126;2022-10-15T08:51:36;3.30;;;3.10;;
5163;SDS011;2601;50.224;10.126;2022-10-15T08:54:06;3.53;;;3.33;;
5163;SDS011;2601;50.224;10.126;2022-10-15T08:56:39;4.67;;;4.23;;
5163;SDS011;2601;50.224;10.126;2022-10-15T09:05:38;3.20;;;2.97;;
5163;SDS011;2601;50.224;10.126;2022-10-15T09:14:03;2.73;;;1.70;;
5163;SDS011;2601;50.224;10.126;2022-10-15T09:16:34;2.23;;;2.13;;
5163;SDS011;2601;50.224;10.126;2022-10-15T09:19:03;3.57;;;2.37;;
5163;SDS011;2601;50.224;10.126;2022-10-15T09:21:36;2.20;;;2.10;;
5163;SDS011;2601;50.224;10.126;2022-10-15T09:24:02;1.80;;;1.70;;
5163;SDS011;2601;50.224;10.126;2022-10-15T09:26:36;1.83;;;1.73;;
5163;SDS011;2601;50.224;10.126;2022-10-15T09:34:58;1.80;;;1.70;;
5163;SDS011;2601;50.224;10.126;2022-10-15T09:43:40;1.77;;;1.67;;
5163;SDS011;2601;50.224;10.126;2022-10-15T09:46:10;1.40;;;1.17;;
5163;SDS011;2601;50.224;10.126;2022-10-15T09:48:40;2.20;;;1.13;;
5163;SDS011;2601;50.224;10.126;2022-10-15T09:51:24;2.50;;;1.60;;
5163;SDS011;2601;50.224;10.126;2022-10-15T09:54:17;3.63;;;1.40;;
5163;SDS011;2601;50.224;10.126;2022-10-15T09:56:47;1.50;;;1.40;;
5163;SDS011;2601;50.224;10.126;2022-10-15T09:59:17;1.50;;;1.10;;
5163;SDS011;2601;50.224;10.126;2022-10-15T10:01:55;2.33;;;1.80;;
5163;SDS011;2601;50.224;10.126;2022-10-15T10:04:31;1.40;;;1.30;;
5163;SDS011;2601;50.224;10.126;2022-10-15T10:07:02;1.50;;;1.40;;
5163;SDS011;2601;50.224;10.126;2022-10-15T10:09:32;1.70;;;1.60;;
5163;SDS011;2601;50.224;10.126;2022-10-15T10:12:05;1.97;;;1.87;;
5163;SDS011;2601;50.224;10.126;2022-10-15T10:14:46;1.37;;;1.27;;
5163;SDS011;2601;50.224;10.126;2022-10-15T10:17:22;2.00;;;1.80;;
5163;SDS011;2601;50.224;10.126;2022-10-15T10:20:12;2.40;;;2.20;;
5163;SDS011;2601;50.224;10.126;2022-10-15T10:22:43;4.23;;;2.07;;
5163;SDS011;2601;50.224;10.126;2022-10-15T10:33:12;1.50;;;1.40;;
5163;SDS011;2601;50.224;10.126;2022-10-15T10:35:47;3.57;;;1.87;;
5163;SDS011;2601;50.224;10.126;2022-10-15T10:38:21;2.50;;;2.10;;
5163;SDS011;2601;50.224;10.126;2022-10-15T10:40:52;1.80;;;1.70;;
5163;SDS011;2601;50.224;10.126;2022-10-15T10:43:29;1.50;;;1.40;;
5163;SDS011;2601;50.224;10.126;2022-10-15T10:45:57;2.30;;;2.10;;
5163;SDS011;2601;50.224;10.126;2022-10-15T10:48:43;1.40;;;1.30;;
5163;SDS011;2601;50.224;10.126;2022-10-15T10:51:12;1.30;;;1.20;;
5163;SDS011;2601;50.224;10.126;2022-10-15T10:56:25;2.17;;;1.70;;
5163;SDS011;2601;50.224;10.126;2022-10-15T10:59:12;3.07;;;2.30;;
5163;SDS011;2601;50.224;10.126;2022-10-15T11:01:42;3.60;;;2.83;;
5163;SDS011;2601;50.224;10.126;2022-10-15T11:04:11;2.87;;;2.30;;
5163;SDS011;2601;50.224;10.126;2022-10-15T11:06:48;1.30;;;0.93;;
5163;SDS011;2601;50.224;10.126;2022-10-15T11:09:35;2.20;;;2.00;;
5163;SDS011;2601;50.224;10.126;2022-10-15T11:20:48;2.20;;;2.00;;
5163;SDS011;2601;50.224;10.126;2022-10-15T11:23:46;3.60;;;2.13;;
5163;SDS011;2601;50.224;10.126;2022-10-15T11:29:23;4.10;;;2.03;;
5163;SDS011;2601;50.224;10.126;2022-10-15T11:40:30;9.73;;;1.50;;
5163;SDS011;2601;50.224;10.126;2022-10-15T11:43:17;1.70;;;1.50;;
5163;SDS011;2601;50.224;10.126;2022-10-15T11:46:02;2.47;;;2.27;;
5163;SDS011;2601;50.224;10.126;2022-10-15T11:51:31;2.40;;;1.80;;
5163;SDS011;2601;50.224;10.126;2022-10-15T11:54:12;3.67;;;3.17;;
5163;SDS011;2601;50.224;10.126;2022-10-15T11:56:44;1.40;;;1.30;;
5163;SDS011;2601;50.224;10.126;2022-10-15T12:04:53;1.23;;;1.10;;
5163;SDS011;2601;50.224;10.126;2022-10-15T12:07:32;1.30;;;1.20;;
5163;SDS011;2601;50.224;10.126;2022-10-15T12:10:05;1.10;;;0.70;;
5163;SDS011;2601;50.224;10.126;2022-10-15T12:15:19;2.40;;;1.03;;
5163;SDS011;2601;50.224;10.126;2022-10-15T12:18:00;1.37;;;1.27;;
5163;SDS011;2601;50.224;10.126;2022-10-15T12:20:37;1.50;;;1.10;;
5163;SDS011;2601;50.224;10.126;2022-10-15T12:23:17;4.10;;;3.70;;
5163;SDS011;2601;50.224;10.126;2022-10-15T12:25:50;5.37;;;3.17;;
5163;SDS011;2601;50.224;10.126;2022-10-15T12:28:17;2.47;;;1.87;;
5163;SDS011;2601;50.224;10.126;2022-10-15T12:41:58;1.70;;;1.20;;
5163;SDS011;2601;50.224;10.126;2022-10-15T12:44:24;1.13;;;1.03;;
5163;SDS011;2601;50.224;10.126;2022-10-15T12:46:56;1.37;;;1.27;;
5163;SDS011;2601;50.224;10.126;2022-10-15T12:51:58;1.63;;;0.83;;
5163;SDS011;2601;50.224;10.126;2022-10-15T13:02:55;4.47;;;3.00;;
5163;SDS011;2601;50.224;10.126;2022-10-15T13:08:01;3.00;;;2.17;;
5163;SDS011;2601;50.224;10.126;2022-10-15T13:10:39;4.20;;;2.63;;
5163;SDS011;2601;50.224;10.126;2022-10-15T13:13:14;1.50;;;1.40;;
5163;SDS011;2601;50.224;10.126;2022-10-15T13:16:05;1.90;;;1.80;;
5163;SDS011;2601;50.224;10.126;2022-10-15T13:18:32;2.83;;;2.20;;
5163;SDS011;2601;50.224;10.126;2022-10-15T13:20:59;8.13;;;3.40;;
5163;SDS011;2601;50.224;10.126;2022-10-15T13:23:29;2.00;;;1.90;;
5163;SDS011;2601;50.224;10.126;2022-10-15T13:28:44;4.00;;;2.60;;
5163;SDS011;2601;50.224;10.126;2022-10-15T13:31:21;7.93;;;2.50;;
5163;SDS011;2601;50.224;10.126;2022-10-15T13:33:52;3.70;;;2.70;;
5163;SDS011;2601;50.224;10.126;2022-10-15T13:36:22;7.30;;;2.40;;
5163;SDS011;2601;50.224;10.126;2022-10-15T13:38:56;2.20;;;2.00;;
5163;SDS011;2601;50.224;10.126;2022-10-15T13:41:24;3.40;;;3.10;;
5163;SDS011;2601;50.224;10.126;2022-10-15T13:43:53;3.33;;;3.13;;
5163;SDS011;2601;50.224;10.126;2022-10-15T13:46:23;2.80;;;2.60;;
5163;SDS011;2601;50.224;10.126;2022-10-15T13:48:55;3.20;;;2.90;;
5163;SDS011;2601;50.224;10.126;2022-10-15T13:51:47;3.50;;;1.90;;
5163;SDS011;2601;50.224;10.126;2022-10-15T13:54:18;9.63;;;4.67;;
5163;SDS011;2601;50.224;10.126;2022-10-15T13:56:56;3.37;;;3.07;;
5163;SDS011;2601;50.224;10.126;2022-10-15T13:59:25;4.97;;;3.03;;
5163;SDS011;2601;50.224;10.126;2022-10-15T14:01:53;1.30;;;1.20;;
5163;SDS011;2601;50.224;10.126;2022-10-15T14:04:26;3.20;;;2.00;;
5163;SDS011;2601;50.224;10.126;2022-10-15T14:06:54;1.93;;;1.73;;
5163;SDS011;2601;50.224;10.126;2022-10-15T14:09:33;1.47;;;1.37;;
5163;SDS011;2601;50.224;10.126;2022-10-15T14:12:01;3.20;;;1.60;;
5163;SDS011;2601;50.224;10.126;2022-10-15T14:14:34;3.63;;;1.50;;
5163;SDS011;2601;50.224;10.126;2022-10-15T14:17:02;3.53;;;1.73;;
5163;SDS011;2601;50.224;10.126;2022-10-15T14:19:30;5.67;;;2.47;;
5163;SDS011;2601;50.224;10.126;2022-10-15T14:21:58;2.60;;;2.40;;
5163;SDS011;2601;50.224;10.126;2022-10-15T14:24:34;2.87;;;2.67;;
5163;SDS011;2601;50.224;10.126;2022-10-15T14:27:06;2.13;;;1.90;;
5163;SDS011;2601;50.224;10.126;2022-10-15T14:34:56;1.83;;;1.73;;
5163;SDS011;2601;50.224;10.126;2022-10-15T14:42:36;4.90;;;1.60;;
5163;SDS011;2601;50.224;10.126;2022-10-15T14:47:43;2.63;;;1.80;;
5163;SDS011;2601;50.224;10.126;2022-10-15T14:50:11;4.40;;;2.07;;
5163;SDS011;2601;50.224;10.126;2022-10-15T14:52:39;20.23;;;10.87;;
5163;SDS011;2601;50.224;10.126;2022-10-15T14:55:14;2.10;;;1.67;;
5163;SDS011;2601;50.224;10.126;2022-10-15T14:57:41;1.43;;;1.13;;
5163;SDS011;2601;50.224;10.126;2022-10-15T15:00:20;50.63;;;5.23;;
5163;SDS011;2601;50.224;10.126;2022-10-15T15:02:56;2.77;;;2.23;;
5163;SDS011;2601;50.224;10.126;2022-10-15T15:05:24;1.87;;;1.77;;
5163;SDS011;2601;50.224;10.126;2022-10-15T15:07:51;3.57;;;1.70;;
5163;SDS011;2601;50.224;10.126;2022-10-15T15:10:17;2.83;;;2.60;;
5163;SDS011;2601;50.224;10.126;2022-10-15T15:12:53;5.93;;;3.00;;
5163;SDS011;2601;50.224;10.126;2022-10-15T15:15:21;3.10;;;2.80;;
5163;SDS011;2601;50.224;10.126;2022-10-15T15:17:48;4.10;;;3.60;;
5163;SDS011;2601;50.224;10.126;2022-10-15T15:20:15;3.47;;;3.17;;
5163;SDS011;2601;50.224;10.126;2022-10-15T15:22:44;3.93;;;1.90;;
5163;SDS011;2601;50.224;10.126;2022-10-15T15:25:22;2.77;;;2.27;;
5163;SDS011;2601;50.224;10.126;2022-10-15T15:27:49;3.00;;;2.70;;
5163;SDS011;2601;50.224;10.126;2022-10-15T15:30:16;4.47;;;3.47;;
5163;SDS011;2601;50.224;10.126;2022-10-15T15:32:47;5.20;;;2.70;;
5163;SDS011;2601;50.224;10.126;2022-10-15T15:35:15;3.20;;;2.90;;
5163;SDS011;2601;50.224;10.126;2022-10-15T15:37:51;7.43;;;4.10;;
5163;SDS011;2601;50.224;10.126;2022-10-15T15:40:17;3.57;;;2.40;;
5163;SDS011;2601;50.224;10.126;2022-10-15T15:42:44;2.03;;;1.90;;
5163;SDS011;2601;50.224;10.126;2022-10-15T15:45:18;3.17;;;2.87;;
5163;SDS011;2601;50.224;10.126;2022-10-15T15:47:46;2.07;;;1.80;;
5163;SDS011;2601;50.224;10.126;2022-10-15T15:50:12;1.70;;;1.60;;
5163;SDS011;2601;50.224;10.126;2022-10-15T15:52:38;5.00;;;1.80;;
5163;SDS011;2601;50.224;10.126;2022-10-15T15:55:04;2.30;;;2.10;;
5163;SDS011;2601;50.224;10.126;2022-10-15T15:57:30;2.57;;;2.37;;
5163;SDS011;2601;50.224;10.126;2022-10-15T15:59:56;4.90;;;2.60;;
5163;SDS011;2601;50.224;10.126;2022-10-15T16:02:23;4.37;;;2.90;;
5163;SDS011;2601;50.224;10.126;2022-10-15T16:04:49;3.40;;;3.10;;
5163;SDS011;2601;50.224;10.126;2022-10-15T16:07:15;5.93;;;2.87;;
5163;SDS011;2601;50.224;10.126;2022-10-15T16:09:40;3.43;;;3.13;;
5163;SDS011;2601;50.224;10.126;2022-10-15T16:12:06;4.10;;;3.00;;
5163;SDS011;2601;50.224;10.126;2022-10-15T16:14:32;4.03;;;2.97;;
5163;SDS011;2601;50.224;10.126;2022-10-15T16:16:58;4.97;;;4.07;;
5163;SDS011;2601;50.224;10.126;2022-10-15T16:19:24;1.80;;;1.70;;
5163;SDS011;2601;50.224;10.126;2022-10-15T16:21:50;4.57;;;2.40;;
5163;SDS011;2601;50.224;10.126;2022-10-15T16:24:16;2.23;;;2.03;;
5163;SDS011;2601;50.224;10.126;2022-10-15T16:26:41;2.13;;;2.03;;
5163;SDS011;2601;50.224;10.126;2022-10-15T16:29:07;1.50;;;1.40;;
5163;SDS011;2601;50.224;10.126;2022-10-15T16:31:33;2.87;;;2.63;;
5163;SDS011;2601;50.224;10.126;2022-10-15T16:34:03;1.93;;;1.40;;
5163;SDS011;2601;50.224;10.126;2022-10-15T16:36:29;3.00;;;2.30;;
5163;SDS011;2601;50.224;10.126;2022-10-15T16:38:56;2.23;;;1.73;;
5163;SDS011;2601;50.224;10.126;2022-10-15T16:41:22;1.87;;;1.63;;
5163;SDS011;2601;50.224;10.126;2022-10-15T16:43:48;1.80;;;1.50;;
5163;SDS011;2601;50.224;10.126;2022-10-15T16:46:15;3.70;;;3.40;;
5163;SDS011;2601;50.224;10.126;2022-10-15T16:48:42;3.93;;;3.53;;
5163;SDS011;2601;50.224;10.126;2022-10-15T16:51:09;6.07;;;4.17;;
5163;SDS011;2601;50.224;10.126;2022-10-15T16:53:37;5.90;;;3.87;;
5163;SDS011;2601;50.224;10.126;2022-10-15T16:56:04;4.43;;;3.50;;
5163;SDS011;2601;50.224;10.126;2022-10-15T16:58:44;5.63;;;2.50;;
5163;SDS011;2601;50.224;10.126;2022-10-15T17:01:11;4.63;;;4.23;;
5163;SDS011;2601;50.224;10.126;2022-10-15T17:03:39;3.43;;;3.10;;
5163;SDS011;2601;50.224;10.126;2022-10-15T17:06:07;3.50;;;3.00;;
5163;SDS011;2601;50.224;10.126;2022-10-15T17:13:49;6.13;;;4.03;;
5163;SDS011;2601;50.224;10.126;2022-10-15T17:16:18;5.60;;;3.53;;
5163;SDS011;2601;50.224;10.126;2022-10-15T17:18:48;3.40;;;2.03;;
5163;SDS011;2601;50.224;10.126;2022-10-15T17:21:18;5.87;;;5.37;;
5163;SDS011;2601;50.224;10.126;2022-10-15T17:23:46;3.33;;;3.03;;
5163;SDS011;2601;50.224;10.126;2022-10-15T17:26:14;6.67;;;4.00;;
5163;SDS011;2601;50.224;10.126;2022-10-15T17:28:45;1.83;;;1.50;;
5163;SDS011;2601;50.224;10.126;2022-10-15T17:31:12;5.67;;;2.63;;
5163;SDS011;2601;50.224;10.126;2022-10-15T17:33:40;2.97;;;2.23;;